Time;durP1;ratioP1;P1;durP2;ratioP2;P2;SDS_P1;SDS_P2;PMS_P1;PMS_P2;Temp;Humidity;BMP_temperature;BMP_pressure;BME280_temperature;BME280_humidity;BME280_pressure;Samples;Min_cycle;Max_cycle;Signal;HPM_P1;HPM_P2
2023/11/04 00:00:05;;;;;;;12.00;5.70;;;;;;;15.60;79.91;99586.96;107596;1252;99228;-60
2023/11/04 00:02:34;;;;;;;12.30;4.70;;;;;;;15.60;80.08;99602.47;107652;1253;99209;-60
2023/11/04 00:05:03;;;;;;;10.20;5.20;;;;;;;15.61;80.35;99601.05;107531;1252;112719;-59
2023/11/04 00:07:31;;;;;;;14.20;6.00;;;;;;;15.62;80.41;99584.10;107639;1253;108731;-61
2023/11/04 00:10:00;;;;;;;13.60;6.50;;;;;;;15.63;80.38;99582.55;107571;1251;107166;-61
2023/11/04 00:12:28;;;;;;;11.40;5.40;;;;;;;15.64;80.37;99580.93;107601;1251;99084;-59
2023/11/04 00:14:57;;;;;;;18.30;6.30;;;;;;;15.64;80.41;99581.98;107475;1251;99691;-58
2023/11/04 00:17:26;;;;;;;11.00;5.60;;;;;;;15.67;80.49;99580.45;107609;1254;112699;-59
2023/11/04 00:19:54;;;;;;;14.40;5.30;;;;;;;15.69;80.41;99575.16;107573;1253;109142;-59
2023/11/04 00:22:23;;;;;;;14.10;6.00;;;;;;;15.69;80.24;99572.92;107574;1251;108756;-59
2023/11/04 00:24:53;;;;;;;14.70;5.60;;;;;;;15.69;80.29;99574.45;107552;1253;99305;-60
2023/11/04 00:27:22;;;;;;;17.90;6.20;;;;;;;15.67;80.05;99573.60;107623;1253;99857;-59
2023/11/04 00:29:50;;;;;;;15.30;5.40;;;;;;;15.65;80.01;99572.48;107548;1253;114012;-60
2023/11/04 00:32:22;;;;;;;13.30;5.40;;;;;;;15.62;79.95;99581.35;107606;1253;108632;-58
2023/11/04 00:34:50;;;;;;;11.40;5.40;;;;;;;15.58;79.72;99596.98;107546;1251;108502;-59
2023/11/04 00:37:19;;;;;;;13.40;5.80;;;;;;;15.56;79.84;99605.73;107493;1251;99230;-59
2023/11/04 00:39:50;;;;;;;9.40;6.30;;;;;;;15.55;79.99;99615.75;107577;1251;99208;-59
2023/11/04 00:42:19;;;;;;;10.80;5.40;;;;;;;15.55;80.18;99626.04;107650;1251;112822;-59
2023/11/04 00:44:47;;;;;;;9.50;5.60;;;;;;;15.56;80.13;99634.46;107454;1253;110343;-59
2023/11/04 00:47:15;;;;;;;15.90;5.40;;;;;;;15.54;79.86;99636.42;107604;1251;109080;-60
2023/11/04 00:49:43;;;;;;;12.40;5.20;;;;;;;15.53;79.96;99632.66;107590;1251;99253;-58
2023/11/04 00:52:13;;;;;;;11.20;5.60;;;;;;;15.50;80.12;99631.15;107590;1249;99060;-59
2023/11/04 00:54:41;;;;;;;11.50;5.30;;;;;;;15.47;80.29;99634.65;107627;1252;113503;-59
2023/11/04 00:57:10;;;;;;;13.00;6.40;;;;;;;15.44;81.27;99638.09;107604;1253;109934;-59
2023/11/04 00:59:39;;;;;;;15.80;7.20;;;;;;;15.44;81.70;99631.99;107569;1254;108050;-58
2023/11/04 01:02:10;;;;;;;15.00;6.90;;;;;;;15.43;81.79;99634.25;107576;1251;99308;-59
2023/11/04 01:04:38;;;;;;;14.00;7.10;;;;;;;15.44;81.98;99634.26;107568;1251;99693;-59
2023/11/04 01:07:07;;;;;;;13.50;7.10;;;;;;;15.46;82.23;99629.52;107628;1251;112763;-58
2023/11/04 01:09:35;;;;;;;12.90;8.20;;;;;;;15.49;82.76;99617.44;107520;1253;108924;-59
2023/11/04 01:12:06;;;;;;;13.60;7.30;;;;;;;15.50;82.46;99610.54;107550;1253;107676;-58
2023/11/04 01:14:35;;;;;;;19.20;8.90;;;;;;;15.53;82.39;99615.48;107600;1253;99157;-60
2023/11/04 01:17:04;;;;;;;13.90;8.20;;;;;;;15.55;82.53;99606.43;107627;1252;99069;-60
2023/11/04 01:19:32;;;;;;;14.60;8.60;;;;;;;15.56;82.48;99608.74;107616;1252;112609;-59
2023/11/04 01:22:01;;;;;;;19.00;9.40;;;;;;;15.59;82.38;99616.94;107490;1253;109860;-59
2023/11/04 01:24:30;;;;;;;10.90;6.00;;;;;;;15.60;82.50;99616.30;107679;1255;107747;-58
2023/11/04 01:26:58;;;;;;;12.10;6.40;;;;;;;15.57;82.01;99614.41;107620;1253;99291;-60
2023/11/04 01:29:26;;;;;;;11.20;5.30;;;;;;;15.55;81.82;99616.98;107438;1252;99218;-59
2023/11/04 01:31:55;;;;;;;8.50;4.50;;;;;;;15.53;81.78;99616.31;107617;1252;113118;-59
2023/11/04 01:34:23;;;;;;;11.70;5.50;;;;;;;15.53;81.67;99607.04;107607;1251;108853;-58
2023/11/04 01:36:52;;;;;;;11.70;5.40;;;;;;;15.53;81.84;99607.34;107590;1251;105794;-59
2023/11/04 01:39:20;;;;;;;10.50;6.80;;;;;;;15.54;81.80;99617.46;107594;1251;99189;-59
2023/11/04 01:41:49;;;;;;;17.80;6.90;;;;;;;15.55;81.94;99617.70;107545;1253;99103;-59
2023/11/04 01:44:17;;;;;;;13.60;7.10;;;;;;;15.53;82.17;99602.84;107637;1252;112570;-60
2023/11/04 01:46:45;;;;;;;15.60;6.70;;;;;;;15.50;82.41;99593.45;107441;1256;110621;-60
2023/11/04 01:49:14;;;;;;;14.80;6.50;;;;;;;15.51;82.72;99587.14;107617;1251;108160;-59
2023/11/04 01:51:43;;;;;;;16.10;6.90;;;;;;;15.53;82.73;99579.70;107479;1251;99205;-59
2023/11/04 01:54:11;;;;;;;10.70;7.10;;;;;;;15.52;83.28;99583.73;107613;1251;99721;-58
2023/11/04 01:56:41;;;;;;;18.50;7.40;;;;;;;15.51;83.13;99583.56;107514;1252;113378;-59
2023/11/04 01:59:10;;;;;;;17.90;7.80;;;;;;;15.54;83.22;99592.21;107559;1251;109983;-60
2023/11/04 02:01:41;;;;;;;14.20;7.20;;;;;;;15.56;83.18;99597.52;107512;1256;108258;-58
2023/11/04 02:04:10;;;;;;;21.40;8.10;;;;;;;15.59;83.16;99605.63;107587;1252;99134;-59
2023/11/04 02:06:39;;;;;;;21.30;7.80;;;;;;;15.61;83.18;99597.84;107620;1251;99084;-59
2023/11/04 02:09:08;;;;;;;14.90;8.70;;;;;;;15.61;83.02;99592.17;107567;1251;111887;-59
2023/11/04 02:11:36;;;;;;;16.10;8.20;;;;;;;15.61;83.16;99589.67;107596;1254;109966;-59
2023/11/04 02:14:08;;;;;;;19.00;8.70;;;;;;;15.60;83.23;99594.46;107575;1251;108278;-65
2023/11/04 02:16:37;;;;;;;12.60;8.60;;;;;;;15.55;82.83;99594.02;107579;1251;99078;-59
2023/11/04 02:19:05;;;;;;;21.40;9.40;;;;;;;15.54;83.02;99589.84;107578;1251;99087;-60
2023/11/04 02:21:33;;;;;;;20.20;9.30;;;;;;;15.56;83.25;99589.89;107648;1251;113535;-59
2023/11/04 02:24:02;;;;;;;22.30;9.20;;;;;;;15.56;83.13;99597.35;107530;1253;109053;-59
2023/11/04 02:26:30;;;;;;;17.10;8.50;;;;;;;15.57;83.30;99591.98;107576;1253;106935;-60
2023/11/04 02:28:58;;;;;;;21.20;9.90;;;;;;;15.58;83.30;99591.66;107579;1255;99212;-59
2023/11/04 02:31:27;;;;;;;24.50;8.90;;;;;;;15.57;83.10;99581.14;107542;1253;99078;-59
2023/11/04 02:33:55;;;;;;;14.80;8.20;;;;;;;15.52;83.02;99571.48;107614;1251;113191;-60
2023/11/04 02:36:24;;;;;;;15.40;8.10;;;;;;;15.50;83.04;99568.51;107548;1251;109788;-59
2023/11/04 02:38:52;;;;;;;18.90;8.30;;;;;;;15.48;82.92;99573.83;107577;1251;108429;-59
2023/11/04 02:41:21;;;;;;;20.40;8.50;;;;;;;15.47;83.15;99573.23;107534;1254;99328;-59
2023/11/04 02:43:49;;;;;;;20.20;9.00;;;;;;;15.47;83.26;99567.48;107539;1253;99150;-58
2023/11/04 02:46:18;;;;;;;18.00;9.00;;;;;;;15.46;83.33;99557.23;107496;1250;113684;-61
2023/11/04 02:48:46;;;;;;;17.20;8.70;;;;;;;15.44;83.12;99558.20;107612;1250;109269;-59
2023/11/04 02:51:15;;;;;;;14.60;8.90;;;;;;;15.44;83.25;99560.23;107587;1251;108197;-59
2023/11/04 02:53:43;;;;;;;13.40;8.00;;;;;;;15.44;83.27;99555.66;107599;1250;99236;-59
2023/11/04 02:56:15;;;;;;;17.20;8.30;;;;;;;15.43;83.14;99546.61;107448;1253;99817;-61
2023/11/04 02:58:43;;;;;;;17.00;10.20;;;;;;;15.43;83.29;99546.52;107649;1254;112622;-59
2023/11/04 03:01:11;;;;;;;20.30;9.60;;;;;;;15.40;83.21;99547.91;107629;1251;108073;-58
2023/11/04 03:03:39;;;;;;;16.20;8.80;;;;;;;15.40;83.19;99543.11;107585;1251;109693;-59
2023/11/04 03:06:08;;;;;;;22.40;8.90;;;;;;;15.38;83.19;99541.36;107582;1253;99209;-60
2023/11/04 03:08:36;;;;;;;16.30;9.10;;;;;;;15.34;83.22;99540.30;107442;1252;99358;-61
2023/11/04 03:11:05;;;;;;;16.50;8.30;;;;;;;15.32;83.14;99531.98;107570;1252;112636;-61
2023/11/04 03:13:33;;;;;;;17.70;10.00;;;;;;;15.29;83.12;99525.05;107595;1252;109977;-58
2023/11/04 03:16:02;;;;;;;17.50;8.40;;;;;;;15.29;83.25;99532.00;107622;1251;107180;-60
2023/11/04 03:18:30;;;;;;;13.60;7.30;;;;;;;15.28;83.04;99530.25;107567;1253;99283;-60
2023/11/04 03:20:58;;;;;;;13.70;8.50;;;;;;;15.26;82.79;99535.61;107547;1251;99180;-60
2023/11/04 03:23:27;;;;;;;17.50;8.30;;;;;;;15.22;82.68;99529.41;107572;1255;113430;-59
2023/11/04 03:25:56;;;;;;;23.00;9.20;;;;;;;15.21;82.75;99521.78;107550;1252;109347;-59
2023/11/04 03:28:25;;;;;;;16.30;8.90;;;;;;;15.19;82.61;99521.14;107548;1253;108407;-59
2023/11/04 03:30:53;;;;;;;15.10;8.90;;;;;;;15.16;82.63;99519.15;107570;1253;99333;-60
2023/11/04 03:33:21;;;;;;;17.40;10.20;;;;;;;15.13;82.65;99523.34;107541;1251;99222;-59
2023/11/04 03:35:50;;;;;;;15.30;9.20;;;;;;;15.12;82.67;99519.20;107565;1253;113217;-58
2023/11/04 03:38:18;;;;;;;16.70;9.90;;;;;;;15.10;82.88;99514.90;107535;1253;108608;-59
2023/11/04 03:40:46;;;;;;;18.20;9.60;;;;;;;15.09;82.93;99520.85;107566;1255;107823;-59
2023/11/04 03:43:15;;;;;;;23.90;12.20;;;;;;;15.09;83.06;99524.78;107547;1253;99270;-59
2023/11/04 03:45:43;;;;;;;17.80;9.80;;;;;;;15.11;83.15;99521.81;107587;1252;99707;-60
2023/11/04 03:48:11;;;;;;;19.60;12.20;;;;;;;15.12;83.18;99513.40;107579;1251;113108;-58
2023/11/04 03:50:40;;;;;;;22.80;12.20;;;;;;;15.13;83.58;99502.01;107552;1255;110602;-58
2023/11/04 03:53:09;;;;;;;24.20;12.70;;;;;;;15.16;83.84;99502.66;107591;1251;108519;-59
2023/11/04 03:55:37;;;;;;;22.20;12.60;;;;;;;15.19;83.83;99507.09;107508;1252;99187;-60
2023/11/04 03:58:06;;;;;;;28.00;12.80;;;;;;;15.21;84.18;99503.15;107602;1251;98940;-60
2023/11/04 04:00:35;;;;;;;26.80;13.90;;;;;;;15.25;84.53;99496.55;107603;1251;113105;-59
2023/11/04 04:03:04;;;;;;;27.20;12.80;;;;;;;15.27;84.65;99499.35;107659;1251;109802;-59
2023/11/04 04:05:33;;;;;;;24.20;12.20;;;;;;;15.30;85.07;99502.21;107505;1252;108363;-62
2023/11/04 04:08:02;;;;;;;33.70;13.40;;;;;;;15.34;85.39;99502.11;107563;1254;99374;-60
2023/11/04 04:10:30;;;;;;;26.20;13.10;;;;;;;15.39;85.44;99506.05;107585;1253;99201;-59
2023/11/04 04:12:58;;;;;;;24.60;12.10;;;;;;;15.42;85.49;99508.79;107518;1252;113671;-60
2023/11/04 04:15:27;;;;;;;25.90;11.70;;;;;;;15.46;85.56;99513.73;107596;1253;110070;-60
2023/11/04 04:17:55;;;;;;;30.90;11.70;;;;;;;15.49;85.65;99522.52;107600;1253;107723;-60
2023/11/04 04:20:23;;;;;;;26.10;12.50;;;;;;;15.53;85.66;99537.41;107629;1253;99283;-58
2023/11/04 04:22:52;;;;;;;24.30;10.70;;;;;;;15.57;85.86;99549.73;107629;1253;101296;-59
2023/11/04 04:25:20;;;;;;;25.10;10.40;;;;;;;15.61;85.98;99553.64;107530;1253;113555;-58
2023/11/04 04:27:48;;;;;;;25.10;10.70;;;;;;;15.64;85.83;99552.98;107575;1253;109266;-58
2023/11/04 04:30:16;;;;;;;31.50;11.50;;;;;;;15.63;85.66;99557.37;107626;1251;108279;-58
2023/11/04 04:32:46;;;;;;;32.80;11.70;;;;;;;15.65;85.94;99574.30;107575;1250;99229;-59
2023/11/04 04:35:15;;;;;;;28.90;11.00;;;;;;;15.69;86.57;99586.27;107548;1253;99206;-61
2023/11/04 04:37:43;;;;;;;25.90;11.20;;;;;;;15.70;86.99;99586.89;107565;1253;112569;-59
2023/11/04 04:40:12;;;;;;;23.70;10.50;;;;;;;15.72;86.89;99579.66;107600;1251;110350;-60
2023/11/04 04:42:41;;;;;;;34.30;11.80;;;;;;;15.73;86.76;99576.29;107601;1253;108263;-58
2023/11/04 04:45:10;;;;;;;25.60;11.30;;;;;;;15.74;86.65;99561.27;107622;1253;99179;-59
2023/11/04 04:47:39;;;;;;;22.80;11.50;;;;;;;15.77;86.83;99565.08;107571;1251;99193;-60
2023/11/04 04:50:08;;;;;;;31.90;11.70;;;;;;;15.78;86.72;99564.84;107606;1251;113396;-59
2023/11/04 04:52:37;;;;;;;30.40;16.50;;;;;;;15.80;86.46;99568.56;107548;1253;109136;-59
2023/11/04 04:55:05;;;;;;;23.10;11.60;;;;;;;15.84;86.63;99563.52;107493;1252;108861;-59
2023/11/04 04:57:35;;;;;;;40.70;22.10;;;;;;;15.87;86.61;99562.00;107549;1255;99295;-59
2023/11/04 05:00:06;;;;;;;25.40;11.60;;;;;;;15.88;86.68;99552.25;107659;1251;99086;-58
2023/11/04 05:02:34;;;;;;;27.90;10.70;;;;;;;15.90;86.53;99546.82;107631;1251;113592;-58
2023/11/04 05:05:03;;;;;;;35.30;11.80;;;;;;;15.90;86.54;99541.39;107498;1253;109003;-59
2023/11/04 05:07:32;;;;;;;31.90;10.90;;;;;;;15.89;86.62;99537.06;107588;1253;108587;-58
2023/11/04 05:10:00;;;;;;;26.00;11.50;;;;;;;15.87;86.54;99535.79;107625;1251;99215;-59
2023/11/04 05:12:29;;;;;;;25.70;10.90;;;;;;;15.85;86.42;99530.58;107617;1254;99084;-60
2023/11/04 05:14:57;;;;;;;23.90;12.20;;;;;;;15.87;86.60;99517.73;107535;1253;112683;-58
2023/11/04 05:17:25;;;;;;;24.40;10.10;;;;;;;15.89;86.54;99512.39;107564;1253;110136;-58
2023/11/04 05:19:55;;;;;;;26.80;11.10;;;;;;;15.87;86.33;99501.42;107566;1253;107604;-60
2023/11/04 05:22:24;;;;;;;19.80;10.70;;;;;;;15.89;86.51;99491.88;107540;1252;99264;-60
2023/11/04 05:24:52;;;;;;;28.00;12.40;;;;;;;15.92;86.63;99493.71;107416;1253;99063;-59
2023/11/04 05:27:21;;;;;;;26.00;12.10;;;;;;;15.95;86.80;99491.30;107550;1253;113007;-59
2023/11/04 05:29:49;;;;;;;28.10;10.80;;;;;;;15.98;86.73;99490.23;107691;1251;109893;-58
2023/11/04 05:32:19;;;;;;;24.50;10.90;;;;;;;16.00;86.52;99495.22;107594;1251;108315;-59
2023/11/04 05:34:48;;;;;;;22.20;10.50;;;;;;;16.02;86.55;99498.52;107506;1253;99179;-58
2023/11/04 05:37:17;;;;;;;29.00;10.10;;;;;;;16.03;86.45;99498.98;107562;1253;99166;-60
2023/11/04 05:39:46;;;;;;;31.90;10.00;;;;;;;16.05;86.56;99498.85;107534;1253;113601;-59
2023/11/04 05:42:16;;;;;;;30.70;9.50;;;;;;;16.07;86.58;99491.52;107572;1254;109765;-59
2023/11/04 05:44:44;;;;;;;32.60;11.20;;;;;;;16.11;86.63;99484.48;107557;1253;107616;-59
2023/11/04 05:47:12;;;;;;;25.40;10.70;;;;;;;16.15;86.73;99486.20;107584;1251;99180;-61
2023/11/04 05:49:40;;;;;;;21.10;9.50;;;;;;;16.17;86.51;99488.92;107508;1252;99055;-59
2023/11/04 05:52:08;;;;;;;28.60;10.80;;;;;;;16.21;86.44;99493.89;107533;1253;112135;-59
2023/11/04 05:54:37;;;;;;;27.90;10.00;;;;;;;16.21;86.17;99502.16;107563;1253;109878;-59
2023/11/04 05:57:06;;;;;;;28.60;10.40;;;;;;;16.22;86.34;99494.57;107635;1251;107613;-60
2023/11/04 05:59:35;;;;;;;41.50;10.70;;;;;;;16.25;86.27;99482.14;107535;1253;99186;-58
2023/11/04 06:02:03;;;;;;;37.70;11.00;;;;;;;16.26;86.04;99473.45;107582;1255;99188;-58
2023/11/04 06:04:32;;;;;;;33.30;10.60;;;;;;;16.26;86.04;99471.87;107622;1254;113257;-59
2023/11/04 06:07:01;;;;;;;30.90;10.50;;;;;;;16.29;86.08;99468.74;107557;1253;111562;-58
2023/11/04 06:09:31;;;;;;;25.00;10.20;;;;;;;16.33;86.21;99466.58;107585;1254;106424;-60
2023/11/04 06:12:00;;;;;;;28.10;11.00;;;;;;;16.36;86.21;99459.11;107638;1253;99268;-59
2023/11/04 06:14:28;;;;;;;28.30;12.10;;;;;;;16.39;86.20;99453.85;107646;1255;99300;-61
2023/11/04 06:16:57;;;;;;;32.70;11.20;;;;;;;16.41;86.33;99453.95;107587;1253;113965;-59
2023/11/04 06:19:25;;;;;;;26.70;11.40;;;;;;;16.41;86.34;99460.80;107511;1251;109315;-58
2023/11/04 06:21:54;;;;;;;31.60;11.10;;;;;;;16.40;86.29;99461.00;107523;1253;107971;-59
2023/11/04 06:24:22;;;;;;;37.30;11.70;;;;;;;16.37;86.36;99456.27;107594;1253;99222;-58
2023/11/04 06:26:51;;;;;;;36.50;12.00;;;;;;;16.34;86.54;99461.02;107632;1254;99787;-59
2023/11/04 06:29:20;;;;;;;28.30;11.10;;;;;;;16.34;86.55;99469.38;107547;1251;112849;-60
2023/11/04 06:31:49;;;;;;;31.70;12.80;;;;;;;16.30;87.30;99476.05;107575;1251;109419;-60
2023/11/04 06:34:17;;;;;;;33.20;11.80;;;;;;;16.29;87.01;99476.02;107582;1251;107818;-59
2023/11/04 06:36:46;;;;;;;34.30;11.70;;;;;;;16.33;87.28;99476.60;107599;1253;99164;-59
2023/11/04 06:39:16;;;;;;;37.00;12.60;;;;;;;16.41;87.18;99479.41;107565;1253;99189;-59
2023/11/04 06:41:44;;;;;;;41.00;12.90;;;;;;;16.50;87.26;99476.25;107554;1253;113482;-60
2023/11/04 06:44:12;;;;;;;35.50;13.70;;;;;;;16.60;87.39;99477.69;107603;1251;109263;-59
2023/11/04 06:46:52;;;;;;;39.10;13.60;;;;;;;16.70;87.18;99476.14;107529;1252;108162;-59
2023/11/04 06:49:22;;;;;;;30.50;14.60;;;;;;;16.81;87.11;99473.14;107537;1253;99218;-59
2023/11/04 06:51:50;;;;;;;29.90;12.60;;;;;;;16.91;86.94;99480.91;107642;1254;99029;-57
2023/11/04 06:54:19;;;;;;;27.70;12.60;;;;;;;16.97;86.66;99487.12;107647;1251;112696;-59
2023/11/04 06:56:47;;;;;;;39.80;14.30;;;;;;;17.06;86.61;99487.95;107546;1251;109295;-61
2023/11/04 06:59:17;;;;;;;27.70;13.40;;;;;;;17.12;86.48;99485.14;107548;1253;108295;-59
2023/11/04 07:01:49;;;;;;;39.20;14.70;;;;;;;17.17;86.10;99477.95;107613;1256;99185;-58
2023/11/04 07:04:18;;;;;;;31.90;15.10;;;;;;;17.22;86.13;99479.11;107578;1253;100943;-59
2023/11/04 07:06:50;;;;;;;33.20;14.20;;;;;;;17.26;85.92;99479.98;107637;1253;113744;-59
2023/11/04 07:09:18;;;;;;;27.50;14.50;;;;;;;17.30;85.50;99473.87;107638;1255;108391;-60
2023/11/04 07:11:46;;;;;;;26.90;14.70;;;;;;;17.35;85.32;99470.59;107610;1255;107698;-59
2023/11/04 07:14:16;;;;;;;24.20;14.20;;;;;;;17.42;85.28;99474.64;107566;1253;99165;-60
2023/11/04 07:16:46;;;;;;;28.30;13.70;;;;;;;17.50;85.03;99474.33;107569;1253;99059;-59
2023/11/04 07:19:15;;;;;;;24.80;14.70;;;;;;;17.56;84.94;99464.27;107600;1251;112817;-59
2023/11/04 07:21:45;;;;;;;32.20;15.20;;;;;;;17.58;84.31;99462.36;107614;1251;109745;-59
2023/11/04 07:24:15;;;;;;;27.10;13.80;;;;;;;17.58;84.08;99461.23;107529;1252;108127;-59
2023/11/04 07:26:45;;;;;;;29.90;14.80;;;;;;;17.62;83.94;99462.02;107536;1253;99210;-59
2023/11/04 07:29:13;;;;;;;33.70;14.20;;;;;;;17.66;83.92;99463.14;107586;1255;99058;-58
2023/11/04 07:31:43;;;;;;;31.80;14.20;;;;;;;17.71;83.72;99461.27;107509;1253;112654;-66
2023/11/04 07:34:11;;;;;;;23.20;13.20;;;;;;;17.72;83.57;99470.57;107603;1251;109885;-59
2023/11/04 07:36:39;;;;;;;26.60;14.20;;;;;;;17.73;83.27;99476.09;107513;1253;108268;-60
2023/11/04 07:39:08;;;;;;;31.00;14.30;;;;;;;17.75;83.22;99479.59;107504;1253;99220;-60
2023/11/04 07:41:40;;;;;;;37.00;14.10;;;;;;;17.77;83.17;99492.09;107552;1253;99087;-58
2023/11/04 07:44:09;;;;;;;37.30;14.80;;;;;;;17.79;82.92;99508.45;107574;1253;112443;-59
2023/11/04 07:46:39;;;;;;;31.40;14.00;;;;;;;17.78;82.73;99516.02;107553;1256;108779;-58
2023/11/04 07:49:07;;;;;;;32.80;14.90;;;;;;;17.78;82.77;99500.85;107474;1253;107792;-59
2023/11/04 07:51:36;;;;;;;26.90;13.20;;;;;;;17.80;82.70;99487.15;107571;1253;99196;-59
2023/11/04 07:54:05;;;;;;;24.50;13.80;;;;;;;17.83;82.37;99480.86;107557;1251;99199;-58
2023/11/04 07:56:33;;;;;;;32.10;14.70;;;;;;;17.85;82.14;99480.21;107584;1255;112588;-58
2023/11/04 07:59:01;;;;;;;32.60;13.90;;;;;;;17.86;82.08;99486.95;107578;1251;109913;-59
2023/11/04 08:01:31;;;;;;;26.90;13.40;;;;;;;17.83;81.64;99489.31;107534;1255;108315;-60
2023/11/04 08:03:59;;;;;;;23.80;13.20;;;;;;;17.80;81.70;99485.52;107546;1253;99164;-59
2023/11/04 08:06:28;;;;;;;30.70;14.80;;;;;;;17.78;81.49;99481.59;107582;1251;99079;-60
2023/11/04 08:08:57;;;;;;;26.20;13.20;;;;;;;17.72;81.49;99466.92;107579;1255;114015;-59
2023/11/04 08:11:25;;;;;;;33.50;14.50;;;;;;;17.70;81.60;99457.81;107552;1252;109634;-59
2023/11/04 08:13:53;;;;;;;24.40;14.40;;;;;;;17.71;81.54;99460.19;107512;1253;108176;-60
2023/11/04 08:16:23;;;;;;;29.60;13.90;;;;;;;17.72;81.53;99453.48;107547;1253;99218;-59
2023/11/04 08:18:51;;;;;;;30.40;14.30;;;;;;;17.72;81.32;99448.23;107585;1255;99212;-60
2023/11/04 08:21:19;;;;;;;33.40;14.40;;;;;;;17.73;81.23;99466.20;107617;1254;113517;-58
2023/11/04 08:23:48;;;;;;;30.40;14.50;;;;;;;17.71;80.96;99496.92;107574;1253;109859;-61
2023/11/04 08:26:16;;;;;;;30.50;14.20;;;;;;;17.66;80.40;99497.28;107545;1251;107594;-59
2023/11/04 08:28:45;;;;;;;28.10;12.90;;;;;;;17.64;79.98;99486.36;107534;1255;99294;-59
2023/11/04 08:31:14;;;;;;;33.00;11.00;;;;;;;17.63;79.44;99482.02;107598;1256;99066;-58
2023/11/04 08:33:43;;;;;;;19.10;9.80;;;;;;;17.64;78.88;99484.14;107600;1255;112940;-60
2023/11/04 08:36:11;;;;;;;20.40;10.70;;;;;;;17.67;78.53;99475.06;107629;1253;108077;-60
2023/11/04 08:38:40;;;;;;;14.30;9.10;;;;;;;17.73;77.91;99472.58;107453;1257;108451;-60
2023/11/04 08:41:08;;;;;;;23.60;10.00;;;;;;;17.79;77.36;99477.52;107524;1253;99184;-59
2023/11/04 08:43:37;;;;;;;19.10;10.20;;;;;;;17.88;77.46;99465.84;107640;1251;99059;-59
2023/11/04 08:46:07;;;;;;;21.00;9.10;;;;;;;17.97;76.97;99461.82;107582;1251;112436;-59
2023/11/04 08:48:35;;;;;;;17.30;10.10;;;;;;;18.06;76.21;99465.63;107569;1251;108669;-59
2023/11/04 08:51:05;;;;;;;13.20;9.40;;;;;;;18.13;75.47;99464.62;107551;1256;108212;-59
2023/11/04 08:53:33;;;;;;;13.00;8.30;;;;;;;18.21;75.27;99454.23;107574;1255;99450;-59
2023/11/04 08:56:03;;;;;;;23.80;9.60;;;;;;;18.33;74.94;99447.33;107570;1253;99070;-59
2023/11/04 08:58:32;;;;;;;18.60;9.40;;;;;;;18.47;73.86;99435.67;107535;1251;112198;-60
2023/11/04 09:01:01;;;;;;;18.20;8.90;;;;;;;18.65;73.50;99427.92;107577;1251;109954;-60
2023/11/04 09:03:29;;;;;;;13.00;8.30;;;;;;;18.94;72.82;99416.09;107603;1253;107484;-59
2023/11/04 09:05:58;;;;;;;18.60;7.80;;;;;;;19.45;71.83;99420.26;107526;1251;99084;-60
2023/11/04 09:08:27;;;;;;;18.10;8.00;;;;;;;19.96;69.38;99422.80;107546;1255;99160;-60
2023/11/04 09:10:55;;;;;;;16.20;7.40;;;;;;;20.07;68.64;99420.54;107560;1251;113139;-60
2023/11/04 09:13:24;;;;;;;15.60;7.80;;;;;;;20.11;66.43;99425.16;107591;1256;110246;-62
2023/11/04 09:15:53;;;;;;;20.90;8.80;;;;;;;20.09;65.25;99427.95;107545;1255;107634;-60
2023/11/04 09:18:21;;;;;;;19.30;8.60;;;;;;;20.07;65.07;99425.71;107597;1255;99192;-59
2023/11/04 09:20:49;;;;;;;18.30;9.20;;;;;;;20.05;65.40;99432.09;107607;1251;99070;-60
2023/11/04 09:23:18;;;;;;;16.80;9.00;;;;;;;19.99;65.72;99433.63;107661;1251;113206;-59
2023/11/04 09:25:47;;;;;;;16.30;9.30;;;;;;;19.92;66.35;99428.83;107604;1251;109364;-59
2023/11/04 09:28:15;;;;;;;18.50;9.10;;;;;;;19.87;66.24;99429.13;107439;1257;108082;-59
2023/11/04 09:30:45;;;;;;;22.40;9.30;;;;;;;19.82;66.42;99419.13;107577;1256;99196;-61
2023/11/04 09:33:15;;;;;;;19.50;8.30;;;;;;;19.84;66.71;99407.50;107668;1251;99834;-59
2023/11/04 09:35:44;;;;;;;14.70;8.80;;;;;;;19.84;66.49;99398.89;107600;1251;112480;-60
2023/11/04 09:38:12;;;;;;;19.50;8.90;;;;;;;19.87;66.87;99392.98;107561;1256;109073;-58
2023/11/04 09:40:41;;;;;;;16.70;8.70;;;;;;;19.92;66.97;99390.11;107560;1255;107915;-58
2023/11/04 09:43:11;;;;;;;16.60;7.90;;;;;;;19.90;65.49;99391.60;107611;1251;99301;-59
2023/11/04 09:45:40;;;;;;;16.30;7.50;;;;;;;19.82;65.16;99384.92;107562;1254;99712;-59
2023/11/04 09:48:09;;;;;;;20.60;7.00;;;;;;;19.76;64.74;99373.50;107559;1255;113709;-59
2023/11/04 09:50:37;;;;;;;17.70;7.80;;;;;;;19.70;65.08;99365.98;107604;1253;109718;-59
2023/11/04 09:53:14;;;;;;;15.80;7.50;;;;;;;19.65;64.82;99361.13;107577;1256;107645;-60
2023/11/04 09:55:42;;;;;;;12.60;7.50;;;;;;;19.55;64.59;99350.83;107502;1254;99038;-60
2023/11/04 09:58:12;;;;;;;14.60;7.50;;;;;;;19.46;64.96;99341.30;107615;1256;99074;-58
2023/11/04 10:00:43;;;;;;;13.30;7.20;;;;;;;19.40;65.21;99330.30;107617;1256;111991;-60
2023/11/04 10:03:12;;;;;;;12.40;6.80;;;;;;;19.33;65.09;99321.91;107596;1252;109844;-59
2023/11/04 10:05:40;;;;;;;12.90;7.40;;;;;;;19.27;65.23;99328.28;107519;1255;107936;-61
2023/11/04 10:08:11;;;;;;;14.90;7.00;;;;;;;19.21;65.60;99327.47;107553;1251;99919;-59
2023/11/04 10:10:39;;;;;;;14.30;7.90;;;;;;;19.15;65.80;99324.77;107656;1251;99852;-58
2023/11/04 10:13:07;;;;;;;15.00;6.70;;;;;;;19.11;66.05;99316.59;107235;1251;434177;-61
2023/11/04 10:15:36;;;;;;;17.30;8.10;;;;;;;19.11;66.31;99316.11;107486;1254;109878;-61
2023/11/04 10:18:05;;;;;;;18.50;7.10;;;;;;;19.11;66.56;99316.15;107593;1251;107366;-60
2023/11/04 10:20:34;;;;;;;21.40;7.10;;;;;;;19.07;66.19;99313.77;107582;1256;99298;-60
2023/11/04 10:23:02;;;;;;;13.90;7.10;;;;;;;19.01;66.20;99318.94;107569;1251;99721;-59
2023/11/04 10:25:30;;;;;;;16.70;7.30;;;;;;;18.96;66.23;99316.16;107565;1256;113005;-60
2023/11/04 10:27:59;;;;;;;18.50;8.00;;;;;;;18.91;66.13;99315.69;107529;1251;108464;-59
2023/11/04 10:30:28;;;;;;;18.30;7.90;;;;;;;18.86;66.23;99311.61;107591;1256;108398;-59
2023/11/04 10:33:07;;;;;;;21.80;8.10;;;;;;;18.83;66.26;99308.92;107535;1251;99611;-59
2023/11/04 10:35:41;;;;;;;23.70;7.70;;;;;;;18.77;66.51;99305.55;107563;1257;99192;-59
2023/11/04 10:38:14;;;;;;;19.90;7.00;;;;;;;18.74;66.32;99312.13;107537;1255;113585;-60
2023/11/04 10:40:43;;;;;;;21.10;8.10;;;;;;;18.71;66.48;99320.13;107544;1251;110101;-59
2023/11/04 10:43:15;;;;;;;19.00;8.20;;;;;;;18.69;66.86;99326.77;107604;1251;108767;-60
2023/11/04 10:45:58;;;;;;;17.20;8.10;;;;;;;18.67;66.98;99333.52;107494;1251;99184;-60
2023/11/04 10:48:43;;;;;;;14.50;8.80;;;;;;;18.63;67.27;99337.50;107483;1252;99180;-60
2023/11/04 10:51:36;;;;;;;21.60;8.90;;;;;;;18.58;67.70;99330.19;107553;1254;113606;-60
2023/11/04 10:54:16;;;;;;;19.50;8.80;;;;;;;18.51;68.16;99336.52;107606;1251;108870;-60
2023/11/04 10:56:52;;;;;;;17.80;9.60;;;;;;;18.45;68.60;99326.35;107638;1254;107154;-59
2023/11/04 10:59:31;;;;;;;17.20;8.50;;;;;;;18.38;69.13;99319.67;107627;1254;99084;-60
2023/11/04 11:01:59;;;;;;;17.30;8.90;;;;;;;18.27;70.18;99312.83;107616;1254;99132;-60
2023/11/04 11:04:30;;;;;;;26.20;9.80;;;;;;;18.16;70.37;99310.73;107614;1251;111947;-59
2023/11/04 11:06:59;;;;;;;20.10;9.80;;;;;;;18.08;70.96;99310.05;107732;1251;109545;-59
2023/11/04 11:09:28;;;;;;;16.40;9.20;;;;;;;17.99;71.40;99307.67;107572;1251;106593;-60
2023/11/04 11:12:12;;;;;;;17.10;9.30;;;;;;;17.91;71.56;99305.46;107597;1251;99218;-59
2023/11/04 11:14:41;;;;;;;19.70;9.60;;;;;;;17.85;72.03;99304.99;107536;1254;99658;-61
2023/11/04 11:17:09;;;;;;;19.50;9.10;;;;;;;17.80;72.40;99305.28;107569;1254;113654;-61